createdAt,value
2019-06-15T00:00:36.126Z,73.77
2019-06-15T00:03:04.080Z,73.82
2019-06-15T00:05:31.162Z,73.98
2019-06-15T00:07:58.362Z,73.70
2019-06-15T00:10:25.564Z,73.97
2019-06-15T00:12:52.712Z,74.17
2019-06-15T00:15:20.020Z,74.37
2019-06-15T00:17:47.250Z,74.73
2019-06-15T00:20:14.594Z,75.22
2019-06-15T00:22:41.740Z,75.54
2019-06-15T00:25:09.176Z,75.71
2019-06-15T00:27:36.248Z,76.03
2019-06-15T00:30:04.201Z,76.37
2019-06-15T00:32:31.512Z,76.37
2019-06-15T00:34:58.688Z,76.12
2019-06-15T00:37:25.869Z,76.21
2019-06-15T00:39:53.144Z,76.12
2019-06-15T00:42:20.907Z,75.84
2019-06-15T00:44:48.089Z,75.52
2019-06-15T00:47:15.289Z,75.38
2019-06-15T00:49:42.568Z,75.39
2019-06-15T00:52:09.756Z,75.53
2019-06-15T00:54:49.701Z,75.67
2019-06-15T00:57:06.004Z,76.04
2019-06-15T00:59:33.308Z,75.65
2019-06-15T01:02:00.828Z,75.42
2019-06-15T01:04:28.225Z,75.89
2019-06-15T01:06:55.428Z,76.04
2019-06-15T01:09:22.505Z,76.15
2019-06-15T01:11:49.659Z,76.19
2019-06-15T01:14:17.050Z,76.57
2019-06-15T01:16:44.272Z,76.66
2019-06-15T01:19:11.447Z,76.53
2019-06-15T01:21:38.660Z,76.70
2019-06-15T01:24:06.278Z,77.28
2019-06-15T01:26:33.431Z,77.76
2019-06-15T01:29:00.620Z,78.26
2019-06-15T01:31:28.435Z,79.59
2019-06-15T01:33:55.606Z,79.64
2019-06-15T01:36:22.792Z,79.30
2019-06-15T01:38:50.112Z,79.12
2019-06-15T01:41:17.179Z,79.07
2019-06-15T01:43:44.967Z,78.99
2019-06-15T01:46:12.138Z,78.87
2019-06-15T01:48:39.288Z,79.47
2019-06-15T01:51:06.362Z,80.04
2019-06-15T01:53:33.584Z,80.53
2019-06-15T01:56:00.787Z,81.89
2019-06-15T01:58:28.409Z,82.07
2019-06-15T02:00:55.592Z,82.44
2019-06-15T02:03:23.109Z,82.92
2019-06-15T02:05:50.262Z,83.48
2019-06-15T02:08:18.929Z,83.97
2019-06-15T02:10:46.168Z,84.46
2019-06-15T02:13:13.415Z,84.89
2019-06-15T02:15:40.709Z,85.29
2019-06-15T02:18:07.899Z,85.71
2019-06-15T02:20:35.129Z,86.42
2019-06-15T02:23:02.528Z,86.58
2019-06-15T02:25:35.930Z,86.63
2019-06-15T02:27:59.034Z,86.78
2019-06-15T02:30:27.910Z,87.07
2019-06-15T02:32:56.181Z,87.28
2019-06-15T02:35:23.363Z,87.52
2019-06-15T02:37:50.571Z,87.85
2019-06-15T02:40:18.254Z,88.12
2019-06-15T02:42:45.782Z,88.42
2019-06-15T02:45:12.967Z,88.76
2019-06-15T02:47:40.053Z,89.03
2019-06-15T02:50:07.233Z,89.00
2019-06-15T02:52:34.441Z,88.94
2019-06-15T02:55:01.644Z,89.07
2019-06-15T02:57:29.315Z,89.17
2019-06-15T02:59:56.802Z,89.15
2019-06-15T03:02:24.195Z,89.26
2019-06-15T03:04:51.726Z,89.41
2019-06-15T03:07:18.927Z,89.63
2019-06-15T03:09:46.486Z,89.75
2019-06-15T03:12:14.156Z,90.00
2019-06-15T03:14:42.326Z,90.15
2019-06-15T03:17:09.484Z,90.44
2019-06-15T03:19:36.700Z,90.71
2019-06-15T03:22:06.495Z,90.69
2019-06-15T03:24:33.035Z,90.50
2019-06-15T03:27:00.219Z,90.47
2019-06-15T03:29:27.530Z,90.57
2019-06-15T03:31:54.688Z,90.66
2019-06-15T03:34:21.864Z,90.40
2019-06-15T03:36:49.086Z,90.05
2019-06-15T03:39:16.244Z,89.64
2019-06-15T03:41:43.423Z,88.95
2019-06-15T03:44:10.939Z,88.18
2019-06-15T03:46:38.279Z,87.42
2019-06-15T03:49:05.833Z,86.68
2019-06-15T03:51:33.042Z,85.50
2019-06-15T03:54:00.532Z,83.98
2019-06-15T03:56:27.608Z,83.49
2019-06-15T03:58:54.787Z,83.23
2019-06-15T04:01:35.230Z,82.62
2019-06-15T04:04:02.732Z,81.59
2019-06-15T04:06:29.939Z,80.80
2019-06-15T04:08:57.124Z,80.01
2019-06-15T04:11:24.445Z,79.34
2019-06-15T04:13:51.634Z,78.74
2019-06-15T04:16:19.112Z,78.29
2019-06-15T04:18:46.319Z,77.94
2019-06-15T04:21:13.480Z,77.08
2019-06-15T04:23:40.680Z,76.42
2019-06-15T04:26:07.866Z,75.74
2019-06-15T04:28:35.065Z,75.35
2019-06-15T04:31:02.274Z,74.63
2019-06-15T04:33:29.456Z,72.33
2019-06-15T04:35:56.508Z,70.37
2019-06-15T04:38:23.950Z,67.77
2019-06-15T04:40:51.129Z,64.23
2019-06-15T04:43:18.272Z,60.42
2019-06-15T04:45:45.547Z,58.20
2019-06-15T04:48:12.838Z,56.10
2019-06-15T04:50:39.970Z,53.82
2019-06-15T04:53:07.120Z,51.77
2019-06-15T04:55:34.643Z,50.11
2019-06-15T04:58:01.804Z,48.81
2019-06-15T05:00:29.075Z,46.26
2019-06-15T05:02:56.287Z,45.05
2019-06-15T05:05:23.464Z,43.52
2019-06-15T05:07:50.624Z,42.03
2019-06-15T05:10:17.862Z,39.57
2019-06-15T05:12:45.028Z,37.93
2019-06-15T05:15:12.224Z,37.00
2019-06-15T05:17:39.313Z,36.07
2019-06-15T05:20:07.078Z,34.80
2019-06-15T05:22:34.332Z,33.28
2019-06-15T05:25:01.470Z,31.70
2019-06-15T05:27:28.636Z,31.19
2019-06-15T05:29:56.655Z,31.11
2019-06-15T05:32:24.462Z,29.62
2019-06-15T05:34:52.556Z,28.29
2019-06-15T05:37:19.849Z,27.50
2019-06-15T05:39:47.037Z,26.79
2019-06-15T05:42:15.286Z,25.09
2019-06-15T05:44:42.498Z,23.13
2019-06-15T05:47:09.708Z,21.83
2019-06-15T05:49:36.980Z,21.62
2019-06-15T05:52:04.192Z,24.88
2019-06-15T05:54:31.397Z,26.72
2019-06-15T05:56:58.576Z,26.45
2019-06-15T05:59:26.234Z,29.70
2019-06-15T06:01:53.361Z,34.79
2019-06-15T06:04:20.593Z,37.91
2019-06-15T06:06:47.872Z,40.36
2019-06-15T06:09:15.182Z,42.96
2019-06-15T06:11:43.487Z,44.33
2019-06-15T06:14:11.785Z,44.85
2019-06-15T06:16:39.040Z,43.98
2019-06-15T06:19:06.411Z,41.31
2019-06-15T06:21:33.846Z,38.90
2019-06-15T06:24:01.080Z,39.02
2019-06-15T06:26:28.431Z,39.66
2019-06-15T06:28:57.519Z,37.01
2019-06-15T06:31:24.750Z,30.77
2019-06-15T06:33:51.999Z,26.70
2019-06-15T06:36:19.179Z,23.72
2019-06-15T06:38:46.688Z,20.66
2019-06-15T06:41:13.845Z,18.14
2019-06-15T06:43:41.039Z,15.99
2019-06-15T06:46:08.249Z,15.48
2019-06-15T06:48:35.452Z,15.61
2019-06-15T06:51:02.577Z,16.60
2019-06-15T06:53:29.919Z,16.52
2019-06-15T06:55:57.139Z,16.61
2019-06-15T06:58:24.320Z,15.90
2019-06-15T07:00:51.512Z,14.75
2019-06-15T07:03:18.857Z,14.30
2019-06-15T07:05:45.913Z,12.38
2019-06-15T07:08:13.873Z,11.61
2019-06-15T07:10:41.071Z,10.49
2019-06-15T07:13:08.248Z,9.88
2019-06-15T07:15:35.876Z,9.69
2019-06-15T07:18:02.932Z,9.33
2019-06-15T07:20:30.021Z,9.34
2019-06-15T07:22:57.211Z,9.84
2019-06-15T07:25:24.681Z,10.66
2019-06-15T07:28:06.945Z,10.68
2019-06-15T07:30:21.056Z,9.77
2019-06-15T07:32:48.205Z,10.43
2019-06-15T07:35:15.589Z,12.54
2019-06-15T07:37:42.893Z,14.66
2019-06-15T07:40:10.595Z,15.59
2019-06-15T07:42:39.458Z,15.67
2019-06-15T07:45:07.499Z,14.04
2019-06-15T07:47:34.706Z,12.67
2019-06-15T07:50:01.982Z,13.44
2019-06-15T07:52:29.458Z,14.23
2019-06-15T07:54:56.627Z,14.07
2019-06-15T07:57:23.819Z,13.14
2019-06-15T07:59:51.480Z,12.68
2019-06-15T08:02:18.672Z,13.72
2019-06-15T08:04:45.896Z,13.92
2019-06-15T08:07:13.182Z,16.01
2019-06-15T08:09:40.708Z,18.12
2019-06-15T08:12:07.857Z,19.24
2019-06-15T08:14:35.092Z,21.03
2019-06-15T08:17:02.360Z,20.28
2019-06-15T08:19:29.559Z,16.78
2019-06-15T08:21:56.938Z,14.57
2019-06-15T08:24:24.136Z,13.80
2019-06-15T08:26:51.500Z,15.19
2019-06-15T08:29:18.706Z,14.10
2019-06-15T08:31:45.998Z,12.28
2019-06-15T08:34:13.175Z,12.52
2019-06-15T08:36:41.118Z,14.07
2019-06-15T08:39:08.279Z,15.94
2019-06-15T08:41:35.462Z,17.45
2019-06-15T08:44:03.484Z,18.24
2019-06-15T08:46:30.754Z,20.00
2019-06-15T08:48:58.047Z,22.79
2019-06-15T08:51:25.402Z,25.34
2019-06-15T08:53:52.613Z,27.81
2019-06-15T08:56:19.830Z,29.64
2019-06-15T08:58:55.497Z,30.67
2019-06-15T09:01:16.618Z,31.67
2019-06-15T09:03:44.264Z,31.18
2019-06-15T09:06:11.532Z,29.59
2019-06-15T09:08:38.891Z,29.07
2019-06-15T09:11:06.096Z,28.58
2019-06-15T09:13:33.579Z,28.90
2019-06-15T09:16:00.896Z,29.81
2019-06-15T09:18:28.095Z,30.50
2019-06-15T09:20:55.302Z,28.30
2019-06-15T09:23:22.702Z,24.36
2019-06-15T09:25:49.924Z,22.76
2019-06-15T09:28:17.403Z,24.52
2019-06-15T09:30:45.172Z,25.35
2019-06-15T09:33:12.498Z,24.33
2019-06-15T09:35:39.696Z,23.20
2019-06-15T09:38:06.905Z,23.12
2019-06-15T09:40:34.245Z,23.61
2019-06-15T09:43:01.628Z,24.89
2019-06-15T09:45:32.781Z,27.08
2019-06-15T09:47:58.271Z,25.67
2019-06-15T09:50:25.470Z,25.58
2019-06-15T09:52:52.675Z,26.81
2019-06-15T09:55:20.117Z,28.36
2019-06-15T09:57:47.716Z,29.93
2019-06-15T10:00:14.990Z,31.59
2019-06-15T10:02:42.528Z,33.58
2019-06-15T10:05:10.126Z,34.69
2019-06-15T10:07:37.766Z,35.46
2019-06-15T10:10:05.805Z,36.32
2019-06-15T10:12:33.092Z,36.64
2019-06-15T10:15:00.331Z,37.56
2019-06-15T10:17:27.414Z,38.17
2019-06-15T10:19:54.650Z,38.49
2019-06-15T10:22:21.805Z,38.08
2019-06-15T10:24:49.042Z,37.27
2019-06-15T10:27:16.371Z,37.59
2019-06-15T10:29:43.458Z,37.86
2019-06-15T10:32:10.658Z,37.59
2019-06-15T10:34:37.877Z,37.11
2019-06-15T10:37:05.184Z,37.11
2019-06-15T10:39:32.480Z,37.19
2019-06-15T10:42:00.024Z,36.83
2019-06-15T10:44:27.801Z,36.54
2019-06-15T10:46:55.151Z,36.65
2019-06-15T10:49:22.789Z,36.86
2019-06-15T10:51:49.980Z,36.40
2019-06-15T10:54:17.544Z,35.23
2019-06-15T10:56:45.322Z,34.60
2019-06-15T10:59:15.999Z,34.48
2019-06-15T11:01:43.267Z,33.42
2019-06-15T11:04:10.456Z,34.40
2019-06-15T11:06:37.751Z,35.92
2019-06-15T11:09:07.429Z,37.43
2019-06-15T11:11:34.720Z,37.45
2019-06-15T11:14:02.149Z,36.88
2019-06-15T11:16:29.391Z,36.34
2019-06-15T11:18:56.580Z,35.18
2019-06-15T11:21:23.737Z,34.43
2019-06-15T11:23:50.971Z,34.92
2019-06-15T11:26:18.165Z,35.36
2019-06-15T11:28:45.553Z,34.95
2019-06-15T11:31:12.720Z,33.47
2019-06-15T11:33:40.031Z,32.64
2019-06-15T11:36:07.194Z,32.84
2019-06-15T11:38:34.389Z,32.55
2019-06-15T11:41:02.294Z,31.94
2019-06-15T11:43:29.524Z,32.14
2019-06-15T11:45:56.952Z,31.65
2019-06-15T11:48:24.555Z,31.00
2019-06-15T11:50:51.574Z,29.50
2019-06-15T11:53:18.836Z,29.41
2019-06-15T11:55:46.602Z,28.87
2019-06-15T11:58:13.801Z,28.73
2019-06-15T12:00:40.958Z,28.89
2019-06-15T12:03:08.288Z,29.12
2019-06-15T12:05:35.488Z,29.20
2019-06-15T12:08:02.836Z,29.78
2019-06-15T12:10:30.328Z,29.85
2019-06-15T12:12:57.516Z,29.58
2019-06-15T12:15:24.863Z,28.60
2019-06-15T12:17:52.155Z,28.35
2019-06-15T12:20:19.403Z,28.54
2019-06-15T12:22:47.363Z,30.08
2019-06-15T12:25:15.213Z,29.69
2019-06-15T12:27:42.452Z,29.74
2019-06-15T12:30:11.853Z,30.50
2019-06-15T12:32:39.114Z,31.30
2019-06-15T12:35:06.806Z,31.58
2019-06-15T12:37:34.418Z,30.83
2019-06-15T12:40:01.743Z,29.91
2019-06-15T12:42:29.057Z,29.31
2019-06-15T12:44:56.355Z,28.72
2019-06-15T12:47:23.976Z,29.65
2019-06-15T12:49:51.309Z,30.25
2019-06-15T12:52:18.506Z,30.43
2019-06-15T12:54:45.706Z,30.02
2019-06-15T12:57:12.864Z,29.92
2019-06-15T12:59:40.595Z,29.15
2019-06-15T13:02:07.868Z,28.63
2019-06-15T13:04:35.039Z,28.02
2019-06-15T13:07:02.308Z,28.25
2019-06-15T13:09:29.402Z,28.24
2019-06-15T13:11:56.651Z,27.76
2019-06-15T13:14:23.849Z,27.36
2019-06-15T13:16:51.538Z,27.37
2019-06-15T13:19:19.432Z,27.95
2019-06-15T13:21:46.752Z,28.62
2019-06-15T13:24:14.497Z,28.21
2019-06-15T13:26:41.663Z,27.83
2019-06-15T13:29:08.922Z,28.12
2019-06-15T13:31:36.630Z,27.84
2019-06-15T13:34:04.003Z,27.87
2019-06-15T13:36:31.268Z,27.08
2019-06-15T13:38:58.482Z,27.36
2019-06-15T13:41:25.746Z,26.94
2019-06-15T13:43:52.910Z,26.80
2019-06-15T13:46:21.127Z,26.99
2019-06-15T13:48:48.412Z,26.78
2019-06-15T13:51:15.981Z,26.53
2019-06-15T13:53:43.237Z,26.50
2019-06-15T13:56:10.524Z,26.20
2019-06-15T13:58:37.694Z,26.86
2019-06-15T14:01:04.930Z,26.62
2019-06-15T14:03:32.085Z,27.12
2019-06-15T14:05:59.304Z,27.27
2019-06-15T14:08:26.548Z,27.10
2019-06-15T14:10:53.924Z,26.85
2019-06-15T14:13:21.434Z,26.58
2019-06-15T14:15:48.748Z,26.96
2019-06-15T14:18:15.934Z,27.28
2019-06-15T14:20:43.310Z,27.79
2019-06-15T14:23:10.575Z,27.58
2019-06-15T14:25:38.674Z,27.70
2019-06-15T14:28:05.885Z,28.09
2019-06-15T14:30:33.277Z,28.06
2019-06-15T14:33:00.471Z,26.85
2019-06-15T14:35:27.962Z,27.01
2019-06-15T14:37:55.088Z,27.47
2019-06-15T14:40:22.599Z,27.89
2019-06-15T14:42:49.829Z,27.36
2019-06-15T14:45:17.518Z,27.55
2019-06-15T14:47:44.670Z,27.80
2019-06-15T14:50:11.945Z,27.60
2019-06-15T14:52:39.148Z,25.92
2019-06-15T14:55:07.233Z,25.43
2019-06-15T14:57:36.128Z,25.17
2019-06-15T15:00:08.529Z,25.32
2019-06-15T15:02:37.227Z,24.62
2019-06-15T15:05:06.864Z,25.33
2019-06-15T15:07:36.589Z,25.96
2019-06-15T15:10:07.062Z,26.22
2019-06-15T15:12:33.695Z,26.70
2019-06-15T15:15:01.140Z,28.82
2019-06-15T15:17:28.695Z,29.73
2019-06-15T15:19:57.429Z,30.76
2019-06-15T15:22:26.764Z,30.91
2019-06-15T15:24:55.969Z,30.95
2019-06-15T15:27:23.105Z,31.03
2019-06-15T15:29:51.455Z,30.91
2019-06-15T15:32:27.431Z,31.01
2019-06-15T15:34:47.944Z,31.23
2019-06-15T15:37:15.927Z,30.95
2019-06-15T15:39:43.244Z,30.39
2019-06-15T15:42:10.455Z,29.96
2019-06-15T15:44:38.094Z,30.05
2019-06-15T15:47:07.082Z,29.70
2019-06-15T15:49:36.645Z,29.79
2019-06-15T15:52:04.125Z,29.78
2019-06-15T15:54:31.492Z,30.32
2019-06-15T15:56:58.833Z,30.55
2019-06-15T15:59:26.618Z,30.34
2019-06-15T16:01:53.808Z,30.16
2019-06-15T16:04:21.911Z,30.46
2019-06-15T16:06:49.226Z,29.24
2019-06-15T16:09:17.005Z,29.64
2019-06-15T16:11:46.293Z,31.44
2019-06-15T16:14:16.295Z,33.23
2019-06-15T16:16:42.795Z,33.38
2019-06-15T16:19:09.981Z,33.66
2019-06-15T16:21:37.493Z,33.17
2019-06-15T16:24:07.137Z,32.74
2019-06-15T16:26:33.842Z,32.41
2019-06-15T16:29:01.163Z,32.71
2019-06-15T16:31:29.260Z,32.87
2019-06-15T16:33:56.742Z,32.98
2019-06-15T16:36:24.043Z,33.18
2019-06-15T16:38:51.768Z,33.01
2019-06-15T16:41:18.978Z,33.44
2019-06-15T16:43:46.267Z,33.35
2019-06-15T16:46:13.460Z,33.89
2019-06-15T16:48:40.868Z,34.10
2019-06-15T16:51:08.048Z,32.91
2019-06-15T16:53:37.189Z,33.35
2019-06-15T16:56:06.121Z,34.26
2019-06-15T16:58:36.180Z,34.13
2019-06-15T17:01:02.943Z,34.14
2019-06-15T17:03:30.450Z,34.10
2019-06-15T17:05:57.640Z,34.72
2019-06-15T17:08:24.991Z,35.24
2019-06-15T17:10:53.099Z,35.61
2019-06-15T17:13:20.313Z,35.82
2019-06-15T17:15:47.823Z,36.55
2019-06-15T17:18:15.100Z,37.13
2019-06-15T17:20:47.197Z,36.64
2019-06-15T17:23:16.375Z,36.34
2019-06-15T17:25:43.443Z,36.92
2019-06-15T17:28:10.718Z,36.55
2019-06-15T17:30:37.894Z,36.39
2019-06-15T17:33:08.200Z,37.37
2019-06-15T17:35:36.157Z,38.19
2019-06-15T17:38:03.480Z,38.16
2019-06-15T17:40:30.551Z,38.15
2019-06-15T17:42:57.918Z,38.60
2019-06-15T17:45:26.667Z,38.92
2019-06-15T17:47:56.869Z,38.64
2019-06-15T17:50:29.679Z,38.21
2019-06-15T17:52:56.867Z,38.67
2019-06-15T17:55:26.787Z,38.26
2019-06-15T17:57:53.254Z,38.87
2019-06-15T18:00:20.949Z,39.17
2019-06-15T18:02:48.244Z,39.98
2019-06-15T18:05:17.978Z,39.99
2019-06-15T18:07:47.001Z,40.38
2019-06-15T18:10:16.011Z,41.52
2019-06-15T18:12:43.292Z,41.62
2019-06-15T18:15:10.771Z,42.14
2019-06-15T18:17:37.940Z,42.39
2019-06-15T18:20:06.756Z,42.53
2019-06-15T18:22:36.212Z,43.24
2019-06-15T18:25:06.417Z,43.14
2019-06-15T18:27:33.970Z,43.45
2019-06-15T18:30:01.132Z,44.17
2019-06-15T18:32:29.086Z,44.67
2019-06-15T18:34:56.621Z,43.98
2019-06-15T18:37:23.775Z,43.65
2019-06-15T18:39:51.056Z,43.96
2019-06-15T18:42:18.379Z,44.96
2019-06-15T18:44:47.774Z,44.70
2019-06-15T18:47:16.545Z,45.05
2019-06-15T18:49:43.998Z,45.26
2019-06-15T18:52:11.170Z,45.50
2019-06-15T18:54:38.333Z,46.35
2019-06-15T18:57:07.431Z,46.48
2019-06-15T18:59:36.625Z,47.01
2019-06-15T19:02:06.533Z,46.80
2019-06-15T19:04:33.281Z,47.35
2019-06-15T19:07:00.911Z,47.25
2019-06-15T19:09:27.989Z,47.51
2019-06-15T19:11:56.612Z,48.25
2019-06-15T19:14:23.945Z,48.33
2019-06-15T19:16:51.511Z,48.69
2019-06-15T19:19:18.821Z,48.91
2019-06-15T19:21:46.258Z,49.66
2019-06-15T19:24:16.574Z,49.55
2019-06-15T19:26:43.004Z,49.65
2019-06-15T19:29:10.877Z,49.92
2019-06-15T19:31:38.099Z,50.05
2019-06-15T19:34:06.785Z,50.17
2019-06-15T19:36:36.494Z,50.53
2019-06-15T19:39:06.261Z,51.01
2019-06-15T19:41:33.505Z,51.11
2019-06-15T19:44:00.716Z,51.08
2019-06-15T19:46:27.905Z,51.58
2019-06-15T19:48:56.033Z,51.89
2019-06-15T19:51:28.528Z,52.16
2019-06-15T19:53:53.039Z,52.68
2019-06-15T19:56:20.267Z,53.02
2019-06-15T19:58:47.480Z,53.19
2019-06-15T20:01:16.765Z,53.40
2019-06-15T20:03:46.333Z,53.87
2019-06-15T20:06:13.397Z,53.98
2019-06-15T20:08:40.717Z,53.98
2019-06-15T20:11:08.483Z,54.18
2019-06-15T20:13:37.077Z,54.46
2019-06-15T20:16:05.264Z,55.22
2019-06-15T20:18:33.654Z,55.47
2019-06-15T20:21:00.728Z,55.29
2019-06-15T20:23:28.886Z,55.45
2019-06-15T20:25:56.339Z,55.81
2019-06-15T20:28:23.552Z,56.04
2019-06-15T20:30:50.725Z,56.00
2019-06-15T20:33:17.956Z,56.38
2019-06-15T20:35:47.160Z,56.55
2019-06-15T20:38:16.082Z,56.81
2019-06-15T20:40:43.523Z,57.10
2019-06-15T20:43:10.634Z,57.49
2019-06-15T20:45:38.178Z,57.97
2019-06-15T20:48:06.776Z,58.31
2019-06-15T20:50:36.282Z,58.84
2019-06-15T20:53:05.851Z,59.20
2019-06-15T20:55:33.148Z,59.33
2019-06-15T20:58:00.487Z,59.83
2019-06-15T21:00:27.639Z,59.96
2019-06-15T21:02:56.323Z,60.44
2019-06-15T21:05:34.819Z,60.92
2019-06-15T21:07:52.908Z,61.65
2019-06-15T21:10:20.144Z,61.90
2019-06-15T21:12:47.703Z,61.59
2019-06-15T21:15:15.347Z,61.54
2019-06-15T21:17:42.572Z,62.35
2019-06-15T21:20:10.133Z,62.30
2019-06-15T21:22:37.672Z,63.11
2019-06-15T21:25:06.833Z,63.02
2019-06-15T21:27:36.658Z,63.42
2019-06-15T21:30:06.806Z,63.16
2019-06-15T21:32:33.805Z,63.57
2019-06-15T21:35:01.314Z,64.00
2019-06-15T21:37:29.497Z,64.00
2019-06-15T21:39:56.872Z,64.54
2019-06-15T21:42:26.470Z,64.89
2019-06-15T21:44:53.166Z,64.99
2019-06-15T21:47:20.574Z,65.79
2019-06-15T21:49:47.754Z,66.45
2019-06-15T21:52:16.667Z,66.50
2019-06-15T21:54:43.984Z,67.10
2019-06-15T21:57:11.683Z,67.13
2019-06-15T21:59:38.848Z,67.06
2019-06-15T22:02:07.067Z,67.25
2019-06-15T22:04:36.643Z,67.16
2019-06-15T22:07:06.271Z,67.12
2019-06-15T22:09:32.833Z,67.16
2019-06-15T22:11:59.896Z,67.35
2019-06-15T22:14:27.072Z,67.62
2019-06-15T22:16:56.738Z,67.87
2019-06-15T22:19:23.376Z,68.05
2019-06-15T22:21:51.263Z,68.16
2019-06-15T22:24:18.802Z,68.04
2019-06-15T22:26:46.731Z,67.89
2019-06-15T22:29:16.765Z,67.44
2019-06-15T22:31:43.787Z,66.93
2019-06-15T22:34:10.961Z,66.27
2019-06-15T22:36:38.259Z,66.34
2019-06-15T22:39:06.443Z,66.04
2019-06-15T22:41:36.089Z,66.04
2019-06-15T22:44:03.104Z,65.73
2019-06-15T22:46:30.523Z,65.57
2019-06-15T22:48:57.752Z,65.33
2019-06-15T22:51:27.325Z,65.33
2019-06-15T22:53:56.380Z,65.77
2019-06-15T22:56:23.113Z,65.93
2019-06-15T22:58:50.206Z,66.32
2019-06-15T23:01:17.411Z,66.37
2019-06-15T23:03:46.588Z,66.38
2019-06-15T23:06:15.971Z,66.23
2019-06-15T23:08:43.224Z,66.02
2019-06-15T23:11:10.475Z,65.81
2019-06-15T23:13:37.669Z,65.48
2019-06-15T23:16:04.945Z,65.35
2019-06-15T23:18:32.422Z,65.53
2019-06-15T23:20:59.601Z,65.74
2019-06-15T23:23:27.211Z,65.84
2019-06-15T23:25:56.647Z,65.99
2019-06-15T23:28:23.730Z,66.61
2019-06-15T23:30:51.234Z,66.59
2019-06-15T23:33:18.715Z,66.67
2019-06-15T23:35:52.047Z,66.84
2019-06-15T23:38:19.646Z,66.94
2019-06-15T23:40:47.556Z,67.16
2019-06-15T23:43:16.745Z,67.68
2019-06-15T23:45:43.955Z,67.33
2019-06-15T23:48:11.127Z,66.98
2019-06-15T23:50:38.418Z,66.76
2019-06-15T23:53:05.830Z,66.69
2019-06-15T23:55:33.093Z,66.54
2019-06-15T23:58:00.356Z,65.88
